createdAt,value
2022-08-18T05:39:43.720Z,44.00
2022-08-18T05:42:25.126Z,41.55
2022-08-18T05:45:02.937Z,41.13
2022-08-18T05:47:40.092Z,37.25
2022-08-18T05:50:20.581Z,44.20
2022-08-18T05:53:01.636Z,39.08
2022-08-18T05:55:57.415Z,46.38
2022-08-18T05:58:39.067Z,40.33
2022-08-18T06:01:22.380Z,37.25
2022-08-18T06:04:07.566Z,34.42
2022-08-18T06:06:47.790Z,36.78
2022-08-18T06:09:32.248Z,33.15
2022-08-18T06:12:24.534Z,30.33
2022-08-18T06:15:13.808Z,30.25
2022-08-18T06:18:35.170Z,29.88
2022-08-18T06:21:27.355Z,31.42
2022-08-18T06:24:16.091Z,30.73
2022-08-18T06:27:04.086Z,27.60
2022-08-18T06:29:59.971Z,30.88
2022-08-18T06:32:58.608Z,30.10
2022-08-18T06:35:45.057Z,28.33
2022-08-18T06:38:50.518Z,27.75
2022-08-18T06:41:42.726Z,22.48
2022-08-18T06:44:32.857Z,24.17
2022-08-18T06:47:23.360Z,24.27
2022-08-18T06:50:09.032Z,21.40
2022-08-18T06:52:58.719Z,21.88
2022-08-18T06:55:38.992Z,15.30
2022-08-18T06:58:31.030Z,20.30
2022-08-18T07:01:11.449Z,15.70
2022-08-18T07:03:59.746Z,16.92
2022-08-18T07:06:39.077Z,16.02
2022-08-18T07:09:26.186Z,19.73
2022-08-18T07:12:09.608Z,20.58
2022-08-18T07:14:50.835Z,13.90
2022-08-18T07:17:43.616Z,16.58
2022-08-18T07:23:08.370Z,25.58
2022-08-18T07:25:48.647Z,16.27
2022-08-18T07:28:37.093Z,13.48
2022-08-18T07:31:27.816Z,15.60
2022-08-18T07:34:12.858Z,13.90
2022-08-18T07:36:58.237Z,24.77
2022-08-18T07:39:41.935Z,14.73
2022-08-18T07:43:00.497Z,14.43
2022-08-18T07:45:43.576Z,17.33
2022-08-18T07:48:38.319Z,15.95
2022-08-18T07:51:25.117Z,14.18
2022-08-18T07:54:47.638Z,14.93
2022-08-18T07:57:30.684Z,11.93
2022-08-18T08:00:41.109Z,14.10
2022-08-18T08:03:35.223Z,13.45
2022-08-18T08:06:22.537Z,13.20
2022-08-18T08:09:10.327Z,15.52
2022-08-18T08:12:00.041Z,12.00
2022-08-18T08:14:46.397Z,12.98
2022-08-18T08:17:33.814Z,14.27
2022-08-18T08:20:22.934Z,13.65
2022-08-18T08:23:15.496Z,13.77
2022-08-18T08:26:19.622Z,11.50
2022-08-18T08:29:19.377Z,13.77
2022-08-18T08:32:06.185Z,13.93
2022-08-18T08:34:51.279Z,15.05
2022-08-18T08:37:42.202Z,15.82
2022-08-18T08:40:23.938Z,12.90
2022-08-18T08:43:06.816Z,14.25
2022-08-18T08:48:29.553Z,16.00
2022-08-18T08:51:25.356Z,11.52
2022-08-18T08:54:16.575Z,13.43
2022-08-18T08:56:57.517Z,13.65
2022-08-18T08:59:37.501Z,9.55
2022-08-18T09:02:48.929Z,11.60
2022-08-18T09:05:30.130Z,9.95
2022-08-18T09:08:39.710Z,13.93
2022-08-18T09:12:07.069Z,8.27
2022-08-18T09:15:24.145Z,14.23
2022-08-18T09:18:31.640Z,11.45
2022-08-18T09:21:39.537Z,11.00
2022-08-18T09:24:27.713Z,9.82
2022-08-18T09:27:53.856Z,14.85
2022-08-18T09:30:51.411Z,10.75
2022-08-18T09:34:11.057Z,10.48
2022-08-18T09:37:05.356Z,14.65
2022-08-18T09:40:10.832Z,11.02
2022-08-18T09:42:55.436Z,9.50
2022-08-18T09:45:59.226Z,13.60
2022-08-18T09:48:43.149Z,12.32
2022-08-18T09:51:40.147Z,11.13
2022-08-18T09:54:21.731Z,9.48
2022-08-18T09:57:27.521Z,12.50
2022-08-18T10:00:33.594Z,10.45
2022-08-18T10:03:31.364Z,11.05
2022-08-18T10:06:23.837Z,10.77
2022-08-18T10:09:37.494Z,9.63
2022-08-18T10:12:44.266Z,11.38
2022-08-18T10:15:50.338Z,11.65
2022-08-18T10:19:03.616Z,11.18
2022-08-18T10:22:16.019Z,10.50
2022-08-18T10:25:27.768Z,13.55
2022-08-18T10:28:06.383Z,10.80
2022-08-18T10:31:16.218Z,12.65
2022-08-18T10:34:16.329Z,9.95
2022-08-18T10:36:58.883Z,9.80
2022-08-18T10:39:53.690Z,9.52
2022-08-18T10:42:37.471Z,10.05
2022-08-18T10:45:24.977Z,14.75
2022-08-18T10:48:16.844Z,14.27
2022-08-18T10:51:01.499Z,10.80
2022-08-18T10:53:49.953Z,12.18
2022-08-18T10:56:36.967Z,11.15
2022-08-18T10:59:28.147Z,13.18
2022-08-18T11:02:24.724Z,9.05
2022-08-18T11:05:02.338Z,11.95
2022-08-18T11:07:44.854Z,12.32
2022-08-18T11:13:36.259Z,11.02
2022-08-18T11:16:28.847Z,10.05
2022-08-18T11:19:13.496Z,11.52
2022-08-18T11:21:52.936Z,11.77
2022-08-18T11:24:35.751Z,11.77
2022-08-18T11:27:24.755Z,11.57
2022-08-18T11:30:09.782Z,9.55
2022-08-18T11:32:53.376Z,12.10
2022-08-18T11:35:34.751Z,11.50
2022-08-18T11:38:23.122Z,19.90
2022-08-18T11:41:19.275Z,12.88
2022-08-18T11:44:03.030Z,11.90
2022-08-18T11:46:43.496Z,12.02
2022-08-18T11:49:36.717Z,9.93
2022-08-18T11:52:32.568Z,14.95
2022-08-18T11:55:25.623Z,8.52
2022-08-18T11:58:05.000Z,10.32
2022-08-18T12:01:03.306Z,10.75
2022-08-18T12:03:50.808Z,14.20
2022-08-18T12:06:32.012Z,11.70
2022-08-18T12:09:37.012Z,14.35
2022-08-18T12:15:44.326Z,16.88
2022-08-18T12:18:28.541Z,13.90
2022-08-18T12:21:10.605Z,13.50
2022-08-18T12:29:43.544Z,17.13
2022-08-18T12:32:46.475Z,11.18
2022-08-18T12:35:21.948Z,8.80
2022-08-18T12:38:04.937Z,13.13
2022-08-18T12:40:59.373Z,12.52
2022-08-18T12:43:36.416Z,10.85
2022-08-18T12:46:14.893Z,12.95
2022-08-18T12:48:52.083Z,8.30
2022-08-18T12:54:28.865Z,11.23
2022-08-18T12:57:18.267Z,8.00
2022-08-18T13:00:16.880Z,9.23
2022-08-18T13:02:56.094Z,10.80
2022-08-18T13:05:34.100Z,12.65
2022-08-18T13:08:27.583Z,15.10
2022-08-18T13:11:21.362Z,11.68
2022-08-18T13:14:03.108Z,6.93
2022-08-18T13:16:54.521Z,10.88
2022-08-18T13:19:33.354Z,9.63
2022-08-18T13:22:10.435Z,15.90
2022-08-18T13:24:48.117Z,10.13
2022-08-18T13:27:30.945Z,12.35
2022-08-18T13:30:30.371Z,10.70
2022-08-18T13:33:35.283Z,10.63
2022-08-18T13:36:05.971Z,9.15
2022-08-18T13:38:43.938Z,10.70
2022-08-18T13:41:21.491Z,10.20
2022-08-18T13:44:02.934Z,10.30
2022-08-18T13:46:43.534Z,14.73
2022-08-18T13:49:30.438Z,14.90
2022-08-18T13:52:16.649Z,10.85
2022-08-18T13:55:08.496Z,11.65
2022-08-18T13:57:50.336Z,11.10
2022-08-18T14:00:32.972Z,10.05
2022-08-18T14:03:12.150Z,9.38
2022-08-18T14:06:01.510Z,15.00
2022-08-18T14:08:39.034Z,11.85
2022-08-18T14:11:19.404Z,13.25
2022-08-18T14:13:57.005Z,9.57
2022-08-18T14:16:38.052Z,14.95
2022-08-18T14:19:31.917Z,8.00
2022-08-18T14:22:21.185Z,12.05
2022-08-18T14:25:25.442Z,11.43
2022-08-18T14:28:03.986Z,10.80
2022-08-18T14:30:50.596Z,13.23
2022-08-18T14:33:50.819Z,9.80
2022-08-18T14:36:30.191Z,9.40
2022-08-18T14:39:08.338Z,7.90
2022-08-18T14:41:54.714Z,9.10
2022-08-18T14:44:33.113Z,10.15
2022-08-18T14:47:11.971Z,10.25
2022-08-18T14:49:57.572Z,10.80
2022-08-18T14:52:34.690Z,8.40
2022-08-18T14:55:14.533Z,9.40
2022-08-18T14:57:52.125Z,9.70
2022-08-18T15:00:29.099Z,10.30
2022-08-18T15:03:06.789Z,13.32
2022-08-18T15:05:46.219Z,9.73
2022-08-18T15:08:23.547Z,9.23
2022-08-18T15:11:03.798Z,10.48
2022-08-18T15:13:46.601Z,9.75
2022-08-18T15:16:31.629Z,10.05
2022-08-18T15:19:59.577Z,9.43
2022-08-18T15:22:21.527Z,7.40
2022-08-18T15:25:11.484Z,11.02
2022-08-18T15:27:52.230Z,12.95
2022-08-18T15:30:30.011Z,10.35
2022-08-18T15:33:08.099Z,11.73
2022-08-18T15:35:51.488Z,13.38
2022-08-18T15:38:31.614Z,9.32
2022-08-18T15:41:09.407Z,10.45
2022-08-18T15:43:48.108Z,10.68
2022-08-18T15:46:25.498Z,8.15
2022-08-18T15:49:05.649Z,9.63
2022-08-18T15:51:45.614Z,10.95
2022-08-18T15:54:25.444Z,11.52
2022-08-18T15:57:02.679Z,11.75
2022-08-18T15:59:42.204Z,9.00
2022-08-18T16:02:20.989Z,8.73
2022-08-18T16:05:10.249Z,9.45
2022-08-18T16:07:51.393Z,9.00
2022-08-18T16:10:36.566Z,12.07
2022-08-18T16:13:15.144Z,8.93
2022-08-18T16:15:52.675Z,6.28
2022-08-18T16:18:30.816Z,9.60
2022-08-18T16:21:11.903Z,15.85
2022-08-18T16:23:52.013Z,9.67
2022-08-18T16:26:31.464Z,7.97
2022-08-18T16:29:09.558Z,9.80
2022-08-18T16:31:46.911Z,12.60
2022-08-18T16:34:26.930Z,9.00
2022-08-18T16:37:05.636Z,13.20
2022-08-18T16:39:43.186Z,11.40
2022-08-18T16:42:22.880Z,10.00
2022-08-18T16:45:00.199Z,8.80
2022-08-18T16:47:38.035Z,8.82
2022-08-18T16:50:18.851Z,12.32
2022-08-18T16:52:55.951Z,7.72
2022-08-18T16:55:34.497Z,9.00
2022-08-18T16:58:26.681Z,10.15
2022-08-18T17:01:20.681Z,19.50
2022-08-18T17:04:13.843Z,11.35
2022-08-18T17:06:58.692Z,12.40
2022-08-18T17:09:37.917Z,12.00
2022-08-18T17:12:16.413Z,10.93
2022-08-18T17:14:57.513Z,10.90
2022-08-18T17:17:36.755Z,11.13
2022-08-18T17:20:19.144Z,8.32
2022-08-18T17:22:57.922Z,8.23
2022-08-18T17:25:36.995Z,9.20
2022-08-18T17:28:16.344Z,11.98
2022-08-18T17:30:57.063Z,10.65
2022-08-18T17:33:41.604Z,9.18
2022-08-18T17:36:26.728Z,7.40
2022-08-18T17:39:07.522Z,7.18
2022-08-18T17:41:56.473Z,10.15
2022-08-18T17:44:35.366Z,8.02
2022-08-18T17:47:33.625Z,12.13
2022-08-18T17:50:40.104Z,10.13
2022-08-18T17:53:18.869Z,9.75
2022-08-18T17:56:01.215Z,9.98
2022-08-18T17:58:43.964Z,7.47
2022-08-18T18:01:21.486Z,8.57
2022-08-18T18:04:01.795Z,10.55
2022-08-18T18:06:46.261Z,13.00
2022-08-18T18:09:34.915Z,10.75
2022-08-18T18:12:26.887Z,12.73
2022-08-18T18:15:07.829Z,10.77
2022-08-18T18:17:46.776Z,11.05
2022-08-18T18:20:38.476Z,13.13
2022-08-18T18:23:22.166Z,9.52
2022-08-18T18:25:59.102Z,15.48
2022-08-18T18:28:38.527Z,12.77
2022-08-18T18:31:28.276Z,18.75
2022-08-18T18:34:23.557Z,9.50
2022-08-18T18:37:08.870Z,12.05
2022-08-18T18:40:00.387Z,18.15
2022-08-18T18:42:39.944Z,11.20
2022-08-18T18:45:28.218Z,18.98
2022-08-18T18:48:48.146Z,12.90
2022-08-18T18:51:32.690Z,11.05
2022-08-18T18:54:27.320Z,11.57
